Lineville, Iowa
Current Conditions -  °F | °C
As of 6:53 PM on Monday 24 Nov 2014 (Local Time) from KLWD Reporting Station
Clear Clear  
Wind Chill: 17°   Ceiling: Unl
Heat Index: 27°   Visibility: 10mi
Dew Point: 20°   Wind: 10mph
Humidity: 75%   Direction: 290°WNW
Pressure: 29.89"   Gusts: NA
Location:  40.58°N, 93.52°W
Report Text: KLWD 250053Z AUTO 29009KT 10SM CLR M03/M07 A2989 RMK AO2 SLP135 T10281067
Loading
Personal Weather Stations






























Interactive Weather Map New forecast layout! Learn more

10-Day Weather Forecast

Advertisements
Track Severe Weather on mobile